Time;durP1;ratioP1;P1;durP2;ratioP2;P2;SDS_P1;SDS_P2;PMS_P1;PMS_P2;Temp;Humidity;BMP_temperature;BMP_pressure;BME280_temperature;BME280_humidity;BME280_pressure;Samples;Min_cycle;Max_cycle;Signal;HPM_P1;HPM_P2
2023/09/19 00:00:15;;;;;;;7.07;2.65;;;16.70;99.90;;;;;;5070916;28;20167;-57
2023/09/19 00:02:40;;;;;;;7.57;2.10;;;16.70;99.90;;;;;;5070383;28;20592;-60
2023/09/19 00:05:08;;;;;;;6.47;2.00;;;16.70;99.90;;;;;;5071385;28;20166;-60
2023/09/19 00:07:36;;;;;;;9.70;2.72;;;16.70;99.90;;;;;;5070847;28;20184;-58
2023/09/19 00:10:02;;;;;;;9.27;2.10;;;16.70;99.90;;;;;;5071090;28;20174;-58
2023/09/19 00:12:28;;;;;;;8.45;2.63;;;16.70;99.90;;;;;;5070772;28;20216;-59
2023/09/19 00:14:53;;;;;;;5.65;2.20;;;16.70;99.90;;;;;;5073950;28;20674;-58
2023/09/19 00:17:19;;;;;;;7.28;2.20;;;16.70;99.90;;;;;;5074506;28;20708;-57
2023/09/19 00:19:46;;;;;;;8.70;2.05;;;16.70;99.90;;;;;;5074445;28;20252;-60
2023/09/19 00:22:13;;;;;;;7.97;2.28;;;16.60;99.90;;;;;;5074470;28;20176;-58
2023/09/19 00:24:38;;;;;;;5.53;2.17;;;16.60;99.90;;;;;;5075164;28;20182;-58
2023/09/19 00:27:05;;;;;;;9.70;2.40;;;16.70;99.90;;;;;;5074263;28;20228;-57
2023/09/19 00:29:31;;;;;;;7.05;2.20;;;16.60;99.90;;;;;;5074580;28;20174;-57
2023/09/19 00:31:57;;;;;;;6.63;2.13;;;16.70;99.90;;;;;;5074135;28;20162;-57
2023/09/19 00:34:22;;;;;;;9.85;2.97;;;16.70;99.90;;;;;;5074375;28;20300;-58
2023/09/19 00:36:48;;;;;;;9.85;2.47;;;16.70;99.90;;;;;;5074066;28;20535;-57
2023/09/19 00:39:13;;;;;;;5.88;1.80;;;16.70;99.90;;;;;;5072864;28;20177;-60
2023/09/19 00:41:40;;;;;;;9.55;2.47;;;;;;;;;;5074456;28;20169;-58
2023/09/19 00:44:06;;;;;;;8.90;2.67;;;16.70;99.90;;;;;;5074725;28;20174;-57
2023/09/19 00:46:32;;;;;;;8.75;2.33;;;16.70;99.90;;;;;;5073833;28;20736;-57
2023/09/19 00:48:58;;;;;;;5.22;2.55;;;16.70;99.90;;;;;;5073994;28;20174;-58
2023/09/19 00:51:26;;;;;;;5.18;2.08;;;16.70;99.90;;;;;;5073947;28;20195;-57
2023/09/19 00:53:53;;;;;;;8.68;2.88;;;16.70;99.90;;;;;;5074107;28;20645;-58
2023/09/19 00:56:20;;;;;;;8.50;2.38;;;16.70;99.90;;;;;;5072530;28;20541;-57
2023/09/19 00:58:46;;;;;;;8.07;2.22;;;16.70;99.90;;;;;;5073781;28;20657;-57
2023/09/19 01:01:14;;;;;;;9.07;2.35;;;16.70;99.90;;;;;;5073679;28;20162;-59
2023/09/19 01:03:41;;;;;;;5.43;2.20;;;16.70;99.90;;;;;;5073600;28;20185;-58
2023/09/19 01:06:08;;;;;;;3.63;1.80;;;16.80;99.90;;;;;;5074000;28;20662;-57
2023/09/19 01:08:35;;;;;;;7.00;2.17;;;16.70;99.90;;;;;;5073834;28;20532;-57
2023/09/19 01:11:10;;;;;;;7.75;1.85;;;16.70;99.90;;;;;;5073823;28;20166;-58
2023/09/19 01:13:44;;;;;;;6.25;2.28;;;16.70;99.90;;;;;;5073948;28;20527;-57
2023/09/19 01:16:27;;;;;;;8.45;2.00;;;17.30;99.90;;;;;;5073809;28;20173;-58
2023/09/19 01:19:26;;;;;;;7.63;2.28;;;16.70;99.90;;;;;;5073355;28;20184;-59
2023/09/19 01:22:06;;;;;;;5.78;2.47;;;16.70;99.90;;;;;;5064790;28;20186;-57
2023/09/19 01:24:50;;;;;;;10.88;2.50;;;16.70;99.90;;;;;;5071387;28;20219;-58
2023/09/19 01:27:37;;;;;;;5.05;2.20;;;16.70;99.90;;;;;;5073253;28;20538;-57
2023/09/19 01:30:22;;;;;;;6.75;2.30;;;16.70;99.90;;;;;;5073081;28;20215;-57
2023/09/19 01:32:52;;;;;;;5.35;2.10;;;16.70;99.90;;;;;;5073299;28;20261;-58
2023/09/19 01:35:18;;;;;;;9.13;2.67;;;16.70;99.90;;;;;;5072965;28;20521;-58
2023/09/19 01:37:44;;;;;;;11.27;2.75;;;16.70;99.90;;;;;;5072991;28;20162;-57
2023/09/19 01:40:16;;;;;;;8.57;2.30;;;16.70;99.90;;;;;;5072910;28;20170;-57
2023/09/19 01:43:06;;;;;;;10.20;2.38;;;16.70;99.90;;;;;;5073128;28;20187;-57
2023/09/19 01:45:48;;;;;;;9.07;2.72;;;16.60;99.90;;;;;;5072726;28;20675;-58
2023/09/19 01:48:40;;;;;;;7.93;2.15;;;16.60;99.90;;;;;;5072011;28;20513;-58
2023/09/19 01:51:09;;;;;;;8.52;2.50;;;16.60;99.90;;;;;;5073422;28;20162;-58
2023/09/19 01:53:57;;;;;;;13.25;2.78;;;16.60;99.90;;;;;;5073082;28;20221;-58
2023/09/19 01:56:35;;;;;;;7.43;2.35;;;16.50;99.90;;;;;;5072836;28;20170;-59
2023/09/19 01:59:07;;;;;;;6.47;1.83;;;16.50;99.90;;;;;;5072791;28;20166;-60
2023/09/19 02:01:35;;;;;;;7.68;2.45;;;16.50;99.90;;;;;;5072820;28;20170;-60
2023/09/19 02:04:01;;;;;;;5.40;2.38;;;16.50;99.90;;;;;;5072443;28;20715;-60
2023/09/19 02:06:26;;;;;;;7.75;2.40;;;16.40;99.90;;;;;;5072693;28;20184;-59
2023/09/19 02:08:53;;;;;;;6.45;2.22;;;16.40;99.90;;;;;;5072381;28;20241;-60
2023/09/19 02:11:19;;;;;;;10.60;2.72;;;16.40;99.90;;;;;;5072707;28;20643;-61
2023/09/19 02:13:44;;;;;;;9.77;2.28;;;16.40;99.90;;;;;;5072276;28;20280;-60
2023/09/19 02:16:10;;;;;;;6.85;2.10;;;16.30;99.90;;;;;;5072075;28;20712;-60
2023/09/19 02:18:36;;;;;;;7.85;2.13;;;16.20;99.90;;;;;;5072592;28;20158;-60
2023/09/19 02:21:03;;;;;;;7.65;2.40;;;16.20;99.90;;;;;;5072138;28;20181;-60
2023/09/19 02:23:30;;;;;;;5.70;2.28;;;16.20;99.90;;;;;;5072041;28;20204;-60
2023/09/19 02:26:00;;;;;;;6.78;2.90;;;16.20;99.90;;;;;;5072090;28;20249;-60
2023/09/19 02:28:29;;;;;;;7.85;2.95;;;16.10;99.90;;;;;;5072328;28;20165;-59
2023/09/19 02:30:56;;;;;;;15.20;3.45;;;16.10;99.90;;;;;;5072290;28;20181;-60
2023/09/19 02:33:21;;;;;;;10.88;2.53;;;16.10;99.90;;;;;;5071449;28;20198;-59
2023/09/19 02:35:47;;;;;;;17.10;2.63;;;16.10;99.90;;;;;;5071314;28;20173;-60
2023/09/19 02:38:14;;;;;;;7.93;2.33;;;16.10;99.90;;;;;;5071823;28;20222;-60
2023/09/19 02:40:40;;;;;;;7.97;2.67;;;16.10;99.90;;;;;;5071998;28;20303;-58
2023/09/19 02:43:06;;;;;;;9.95;2.80;;;16.00;99.90;;;;;;5072165;28;20190;-58
2023/09/19 02:45:32;;;;;;;6.25;2.35;;;15.90;99.90;;;;;;5071585;28;20205;-59
2023/09/19 02:47:58;;;;;;;9.52;2.45;;;15.90;99.90;;;;;;5071721;28;20180;-58
2023/09/19 02:50:24;;;;;;;13.52;2.53;;;15.90;99.90;;;;;;5071674;28;20205;-60
2023/09/19 02:52:49;;;;;;;7.32;1.88;;;15.90;99.90;;;;;;5071617;28;20170;-61
2023/09/19 02:55:21;;;;;;;5.72;2.40;;;15.90;99.90;;;;;;5071479;28;20202;-60
2023/09/19 02:57:49;;;;;;;12.25;2.92;;;15.90;99.90;;;;;;5071532;28;20162;-60
2023/09/19 03:00:16;;;;;;;11.57;2.60;;;15.90;99.90;;;;;;5071799;28;20170;-60
2023/09/19 03:02:41;;;;;;;7.30;2.20;;;15.80;99.90;;;;;;5071494;28;20158;-59
2023/09/19 03:05:07;;;;;;;12.95;2.72;;;15.80;99.90;;;;;;5071783;28;20648;-58
2023/09/19 03:07:34;;;;;;;10.48;2.78;;;15.80;99.90;;;;;;5071396;28;20707;-59
2023/09/19 03:09:59;;;;;;;14.50;3.00;;;15.80;99.90;;;;;;5071690;28;20169;-58
2023/09/19 03:12:26;;;;;;;9.20;2.17;;;15.80;99.90;;;;;;5071402;28;20250;-59
2023/09/19 03:14:52;;;;;;;6.85;2.70;;;15.80;99.90;;;;;;5071261;28;20267;-57
2023/09/19 03:17:19;;;;;;;9.23;3.15;;;15.80;99.90;;;;;;5071565;28;20166;-60
2023/09/19 03:19:46;;;;;;;8.27;2.25;;;15.70;99.90;;;;;;5071279;28;20712;-59
2023/09/19 03:22:11;;;;;;;8.82;2.35;;;15.70;99.90;;;;;;5071545;28;20166;-58
2023/09/19 03:24:37;;;;;;;11.70;2.58;;;15.70;99.90;;;;;;5071917;28;20189;-58
2023/09/19 03:27:03;;;;;;;8.02;2.40;;;15.70;99.90;;;;;;5071506;28;20553;-58
2023/09/19 03:29:29;;;;;;;7.30;2.15;;;15.70;99.90;;;;;;5071455;28;20635;-60
2023/09/19 03:31:55;;;;;;;6.65;2.22;;;15.60;99.90;;;;;;5069911;28;20177;-59
2023/09/19 03:34:21;;;;;;;8.38;2.33;;;15.60;99.90;;;;;;5071057;28;20296;-57
2023/09/19 03:36:46;;;;;;;8.82;2.53;;;15.60;99.90;;;;;;5071074;28;20192;-58
2023/09/19 03:39:15;;;;;;;7.28;2.40;;;;;;;;;;5071192;28;20158;-60
2023/09/19 03:41:41;;;;;;;8.02;2.40;;;;;;;;;;5071055;28;20166;-58
2023/09/19 03:44:07;;;;;;;10.00;2.30;;;15.60;99.90;;;;;;5070265;28;20181;-59
2023/09/19 03:46:34;;;;;;;9.52;2.63;;;15.60;99.90;;;;;;5070937;28;20334;-60
2023/09/19 03:49:00;;;;;;;8.73;2.70;;;15.60;99.90;;;;;;5073222;28;20181;-57
2023/09/19 03:51:25;;;;;;;12.00;2.50;;;15.60;99.90;;;;;;5074985;28;20166;-57
2023/09/19 03:53:51;;;;;;;11.27;2.65;;;15.50;99.90;;;;;;5074739;28;20678;-57
2023/09/19 03:56:16;;;;;;;8.63;2.95;;;15.50;99.90;;;;;;5074924;28;20178;-57
2023/09/19 03:58:42;;;;;;;5.65;2.10;;;15.50;99.90;;;;;;5074893;28;20174;-57
2023/09/19 04:01:07;;;;;;;12.57;2.33;;;15.50;99.90;;;;;;5075316;28;20163;-58
2023/09/19 04:03:46;;;;;;;7.45;2.40;;;15.40;99.90;;;;;;5074707;28;20177;-58
2023/09/19 04:06:15;;;;;;;6.97;2.63;;;15.40;99.90;;;;;;5074978;28;20176;-57
2023/09/19 04:08:41;;;;;;;10.40;2.70;;;15.40;99.90;;;;;;5074861;28;20177;-57
2023/09/19 04:11:07;;;;;;;8.90;3.13;;;15.40;99.90;;;;;;5075308;28;20169;-57
2023/09/19 04:13:32;;;;;;;7.15;2.13;;;15.40;99.90;;;;;;5074740;28;20543;-57
2023/09/19 04:15:58;;;;;;;10.90;2.35;;;15.40;99.90;;;;;;5074507;28;20173;-57
2023/09/19 04:18:24;;;;;;;9.00;2.22;;;15.30;99.90;;;;;;5074430;28;20166;-58
2023/09/19 04:20:50;;;;;;;6.30;2.03;;;15.40;99.90;;;;;;5074517;28;20219;-57
2023/09/19 04:23:15;;;;;;;9.70;2.38;;;15.40;99.90;;;;;;5074362;28;20244;-58
2023/09/19 04:25:41;;;;;;;9.95;3.13;;;15.30;99.90;;;;;;5072967;28;20601;-57
2023/09/19 04:28:07;;;;;;;11.70;3.38;;;15.30;99.90;;;;;;5073647;28;20165;-58
2023/09/19 04:30:32;;;;;;;13.77;3.33;;;15.30;99.90;;;;;;5074570;28;20223;-60
2023/09/19 04:32:59;;;;;;;12.18;2.75;;;15.30;99.90;;;;;;5074248;28;20626;-58
2023/09/19 04:35:26;;;;;;;11.38;2.70;;;15.30;99.90;;;;;;5074150;28;20639;-58
2023/09/19 04:37:52;;;;;;;10.40;2.38;;;15.30;99.90;;;;;;5074328;28;20169;-58
2023/09/19 04:40:19;;;;;;;9.55;2.28;;;15.30;99.90;;;;;;5074255;28;20170;-59
2023/09/19 04:42:45;;;;;;;8.23;2.15;;;15.30;99.90;;;;;;5072652;28;20189;-57
2023/09/19 04:45:11;;;;;;;13.00;3.03;;;15.30;99.90;;;;;;5073723;28;20177;-57
2023/09/19 04:47:38;;;;;;;9.32;3.03;;;15.30;99.90;;;;;;5074513;28;20178;-58
2023/09/19 04:50:11;;;;;;;7.68;3.13;;;15.30;99.90;;;;;;5074455;28;20174;-58
2023/09/19 04:52:44;;;;;;;6.55;2.47;;;15.20;99.90;;;;;;5074464;28;20172;-58
2023/09/19 04:55:17;;;;;;;8.38;2.47;;;15.20;99.90;;;;;;5073654;28;20235;-61
2023/09/19 04:57:49;;;;;;;8.23;2.22;;;15.20;99.90;;;;;;5074091;28;20166;-58
2023/09/19 05:00:23;;;;;;;12.43;2.78;;;15.20;99.90;;;;;;5072148;28;20265;-58
2023/09/19 05:02:52;;;;;;;14.75;3.65;;;15.20;99.90;;;;;;5073850;28;20170;-57
2023/09/19 05:05:18;;;;;;;7.82;2.40;;;15.20;99.90;;;;;;5073536;28;20174;-56
2023/09/19 05:07:45;;;;;;;7.85;2.30;;;15.20;99.90;;;;;;5073500;28;20537;-58
2023/09/19 05:10:11;;;;;;;9.55;2.22;;;15.20;99.90;;;;;;5073536;28;20170;-59
2023/09/19 05:12:37;;;;;;;11.60;2.97;;;15.10;99.90;;;;;;5074119;28;20257;-56
2023/09/19 05:15:04;;;;;;;10.13;2.40;;;15.10;99.90;;;;;;5073325;28;20280;-57
2023/09/19 05:17:31;;;;;;;8.27;2.47;;;15.10;99.90;;;;;;5073610;28;20215;-56
2023/09/19 05:19:57;;;;;;;13.13;2.90;;;15.20;99.90;;;;;;5073318;28;20158;-57
2023/09/19 05:22:24;;;;;;;10.27;3.97;;;15.20;99.90;;;;;;5073306;28;20208;-57
2023/09/19 05:24:51;;;;;;;9.25;2.30;;;15.20;99.90;;;;;;5073494;28;20178;-57
2023/09/19 05:27:16;;;;;;;6.88;2.20;;;15.20;99.90;;;;;;5073362;28;20166;-56
2023/09/19 05:29:44;;;;;;;9.82;2.38;;;15.20;99.90;;;;;;5073358;28;20166;-57
2023/09/19 05:32:10;;;;;;;11.95;2.80;;;15.20;99.90;;;;;;5072985;28;20158;-56
2023/09/19 05:34:36;;;;;;;11.60;2.60;;;15.20;99.90;;;;;;5073579;28;20666;-56
2023/09/19 05:37:02;;;;;;;12.63;2.58;;;15.20;99.90;;;;;;5072925;28;20194;-56
2023/09/19 05:39:27;;;;;;;8.57;2.55;;;15.20;99.90;;;;;;5072980;28;21033;-56
2023/09/19 05:41:53;;;;;;;14.40;3.63;;;15.20;99.90;;;;;;5072851;28;20173;-57
2023/09/19 05:44:19;;;;;;;9.75;2.50;;;15.20;99.90;;;;;;5072886;28;20166;-57
2023/09/19 05:46:45;;;;;;;11.48;2.92;;;15.30;99.90;;;;;;5072682;28;20725;-56
2023/09/19 05:49:11;;;;;;;15.30;2.63;;;15.30;99.90;;;;;;5072637;28;20162;-56
2023/09/19 05:51:37;;;;;;;10.43;3.20;;;15.30;99.90;;;;;;5073122;28;20170;-56
2023/09/19 05:54:04;;;;;;;13.45;2.63;;;15.30;99.90;;;;;;5072599;28;20201;-57
2023/09/19 05:56:30;;;;;;;11.65;3.13;;;15.30;99.90;;;;;;5072753;28;20197;-56
2023/09/19 05:58:56;;;;;;;9.00;2.60;;;;;;;;;;5072516;28;20198;-56
2023/09/19 06:01:22;;;;;;;11.63;2.55;;;15.30;99.90;;;;;;5072450;28;20173;-56
2023/09/19 06:03:47;;;;;;;10.65;2.80;;;15.30;99.90;;;;;;5072394;28;20190;-56
2023/09/19 06:06:13;;;;;;;8.93;2.35;;;15.40;99.90;;;;;;5072441;28;20166;-56
2023/09/19 06:08:39;;;;;;;8.63;3.00;;;15.40;99.90;;;;;;5072352;28;20169;-55
2023/09/19 06:11:07;;;;;;;8.77;2.50;;;15.50;99.90;;;;;;5072111;28;20159;-56
2023/09/19 06:13:33;;;;;;;14.65;2.45;;;15.50;99.90;;;;;;5072410;28;20292;-57
2023/09/19 06:15:59;;;;;;;12.18;2.42;;;15.40;99.90;;;;;;5072182;28;20166;-56
2023/09/19 06:18:26;;;;;;;14.10;3.80;;;;;;;;;;5072457;28;20173;-57
2023/09/19 06:20:51;;;;;;;11.07;2.95;;;15.50;99.90;;;;;;5072340;28;20197;-57
2023/09/19 06:23:17;;;;;;;10.50;3.13;;;15.50;99.90;;;;;;5072131;28;20202;-56
2023/09/19 06:25:43;;;;;;;12.73;2.92;;;15.50;99.90;;;;;;5072422;28;20185;-57
2023/09/19 06:28:12;;;;;;;10.15;2.60;;;15.50;99.90;;;;;;5070667;28;20245;-58
2023/09/19 06:30:40;;;;;;;10.60;2.83;;;15.60;99.90;;;;;;5072617;28;20177;-57
2023/09/19 06:33:06;;;;;;;11.00;2.40;;;15.50;99.90;;;;;;5072480;28;20631;-56
2023/09/19 06:35:33;;;;;;;10.40;2.70;;;15.60;99.90;;;;;;5072079;28;20601;-56
2023/09/19 06:37:58;;;;;;;10.90;2.67;;;15.60;99.90;;;;;;5071853;28;20166;-56
2023/09/19 06:40:24;;;;;;;11.80;3.10;;;15.60;99.90;;;;;;5071938;28;20269;-57
2023/09/19 06:42:53;;;;;;;6.75;2.53;;;15.60;99.90;;;;;;5071975;28;20166;-57
2023/09/19 06:45:19;;;;;;;10.80;2.35;;;15.60;99.90;;;;;;5071449;28;20206;-56
2023/09/19 06:47:45;;;;;;;9.50;2.67;;;15.70;99.90;;;;;;5070935;28;20181;-57
2023/09/19 06:50:14;;;;;;;10.48;2.45;;;15.70;99.90;;;;;;5070819;28;20240;-59
2023/09/19 06:52:43;;;;;;;11.90;2.85;;;15.80;99.90;;;;;;5071107;28;20292;-58
2023/09/19 06:55:13;;;;;;;7.82;2.42;;;15.80;99.90;;;;;;5070732;28;20263;-58
2023/09/19 06:57:40;;;;;;;10.05;3.13;;;15.90;99.90;;;;;;5070741;28;20185;-59
2023/09/19 07:00:15;;;;;;;11.65;2.58;;;15.80;99.90;;;;;;5071279;28;20258;-57
2023/09/19 07:02:42;;;;;;;9.20;2.90;;;15.90;99.90;;;;;;5070898;28;20211;-59
2023/09/19 07:05:08;;;;;;;12.07;3.38;;;;;;;;;;5071072;28;20154;-56
2023/09/19 07:07:36;;;;;;;10.50;2.25;;;16.00;99.90;;;;;;5071176;28;20192;-59
2023/09/19 07:10:05;;;;;;;12.65;2.95;;;16.10;99.90;;;;;;5070976;28;20235;-60
2023/09/19 07:12:32;;;;;;;9.05;2.75;;;16.10;99.90;;;;;;5070794;28;20217;-59
2023/09/19 07:14:58;;;;;;;6.47;1.98;;;16.10;99.90;;;;;;5070784;28;20209;-56
2023/09/19 07:17:23;;;;;;;13.05;2.42;;;16.10;99.90;;;;;;5070648;28;20508;-57
2023/09/19 07:19:50;;;;;;;10.07;3.13;;;16.10;99.90;;;;;;5070695;28;20206;-57
2023/09/19 07:22:15;;;;;;;11.88;2.50;;;16.10;99.90;;;;;;5070264;28;20170;-60
2023/09/19 07:24:41;;;;;;;13.35;2.75;;;16.20;99.90;;;;;;5069771;28;20169;-56
2023/09/19 07:27:07;;;;;;;12.32;2.80;;;16.20;99.90;;;;;;5070780;28;20161;-56
2023/09/19 07:29:32;;;;;;;8.32;2.50;;;16.10;99.90;;;;;;5071040;28;20150;-57
2023/09/19 07:31:58;;;;;;;6.10;2.42;;;16.10;99.90;;;;;;5070459;28;20176;-56
2023/09/19 07:34:24;;;;;;;13.75;2.83;;;16.20;99.90;;;;;;5070367;28;20292;-56
2023/09/19 07:36:50;;;;;;;8.23;3.00;;;16.30;99.90;;;;;;5070602;28;20193;-56
2023/09/19 07:39:15;;;;;;;11.63;2.85;;;16.40;99.90;;;;;;5070583;28;20577;-56
2023/09/19 07:41:41;;;;;;;9.82;2.83;;;16.50;99.90;;;;;;5070250;28;20166;-58
2023/09/19 07:44:08;;;;;;;7.68;2.60;;;16.60;99.90;;;;;;5070680;28;20170;-57
2023/09/19 07:46:34;;;;;;;12.23;2.40;;;16.70;99.90;;;;;;5032516;28;1075487;-56
2023/09/19 07:49:00;;;;;;;7.57;2.50;;;;;;;;;;5071348;28;20188;-57
2023/09/19 07:51:26;;;;;;;9.77;3.13;;;16.80;99.90;;;;;;5071108;28;20575;-58
2023/09/19 07:53:52;;;;;;;7.80;2.38;;;16.70;99.90;;;;;;5071186;28;20653;-59
2023/09/19 07:56:20;;;;;;;12.15;3.20;;;16.80;99.90;;;;;;5071261;28;20180;-59
2023/09/19 07:58:46;;;;;;;6.10;2.28;;;;;;;;;;5070970;28;20177;-59
2023/09/19 08:01:13;;;;;;;12.30;2.50;;;17.00;99.90;;;;;;5071001;28;20162;-60
2023/09/19 08:03:43;;;;;;;11.52;2.83;;;17.00;99.90;;;;;;5071104;28;20174;-59
2023/09/19 08:06:10;;;;;;;6.70;2.22;;;16.90;99.90;;;;;;5071148;28;20178;-60
2023/09/19 08:08:39;;;;;;;9.73;2.85;;;16.90;99.90;;;;;;5071195;28;20627;-59
2023/09/19 08:11:11;;;;;;;12.43;2.70;;;17.00;99.90;;;;;;5071314;28;20212;-56
2023/09/19 08:13:43;;;;;;;6.50;2.38;;;17.10;99.90;;;;;;5071424;28;20202;-59
2023/09/19 08:16:09;;;;;;;10.73;2.60;;;17.30;99.90;;;;;;5070759;28;20162;-59
2023/09/19 08:18:35;;;;;;;6.20;2.70;;;17.30;99.90;;;;;;5071458;28;20162;-59
2023/09/19 08:21:01;;;;;;;10.13;3.00;;;17.30;99.90;;;;;;5070690;28;20254;-59
2023/09/19 08:23:28;;;;;;;9.75;3.08;;;;;;;;;;5070642;28;20207;-59
2023/09/19 08:25:58;;;;;;;8.50;3.05;;;17.40;99.90;;;;;;5070937;28;20170;-59
2023/09/19 08:28:24;;;;;;;13.40;3.20;;;17.40;99.90;;;;;;5070689;28;20530;-56
2023/09/19 08:30:50;;;;;;;8.35;2.55;;;17.50;99.90;;;;;;5070884;28;20511;-56
2023/09/19 08:33:16;;;;;;;14.10;3.20;;;17.60;99.90;;;;;;5070847;28;20170;-56
2023/09/19 08:35:42;;;;;;;13.30;2.42;;;17.50;99.90;;;;;;5073323;28;20195;-60
2023/09/19 08:38:08;;;;;;;10.68;3.05;;;;;;;;;;5074230;28;20245;-60
2023/09/19 08:40:41;;;;;;;8.35;2.33;;;17.60;99.90;;;;;;5074647;28;20656;-59
2023/09/19 08:43:08;;;;;;;9.32;2.40;;;;;;;;;;5074323;28;20261;-56
2023/09/19 08:45:34;;;;;;;6.82;2.38;;;17.40;99.90;;;;;;5074414;28;20197;-59
2023/09/19 08:48:06;;;;;;;7.90;2.25;;;17.60;99.90;;;;;;5073871;28;20174;-58
2023/09/19 08:50:36;;;;;;;8.80;2.22;;;17.60;99.90;;;;;;5074167;28;20181;-56
2023/09/19 08:53:10;;;;;;;9.35;3.13;;;17.90;99.90;;;;;;5073811;28;20165;-57
2023/09/19 08:55:37;;;;;;;11.43;2.80;;;18.10;99.90;;;;;;5074512;28;20266;-59
2023/09/19 08:58:06;;;;;;;11.63;2.83;;;18.00;99.90;;;;;;5074498;28;20537;-58
2023/09/19 09:00:32;;;;;;;11.85;2.70;;;18.10;99.90;;;;;;5074023;28;20197;-58
2023/09/19 09:03:00;;;;;;;8.43;2.00;;;18.10;99.90;;;;;;5073929;28;20166;-59
2023/09/19 09:05:27;;;;;;;6.75;2.55;;;18.20;99.90;;;;;;5073649;28;20216;-59
2023/09/19 09:07:56;;;;;;;13.35;2.90;;;18.20;99.90;;;;;;5073557;28;20241;-58
2023/09/19 09:10:22;;;;;;;8.02;2.70;;;18.30;99.90;;;;;;5073551;28;20170;-58
2023/09/19 09:12:58;;;;;;;9.85;2.67;;;18.40;99.90;;;;;;5073402;28;20166;-58
2023/09/19 09:15:25;;;;;;;7.45;2.65;;;18.60;99.90;;;;;;5073428;28;20609;-56
2023/09/19 09:17:52;;;;;;;12.85;2.80;;;18.60;99.90;;;;;;5073472;28;20177;-56
2023/09/19 09:20:19;;;;;;;4.68;2.50;;;18.90;99.90;;;;;;5073671;28;20197;-59
2023/09/19 09:22:55;;;;;;;5.72;2.10;;;18.90;99.90;;;;;;5073393;28;20260;-59
2023/09/19 09:25:24;;;;;;;6.82;2.50;;;18.90;99.90;;;;;;5073298;28;20185;-58
2023/09/19 09:28:03;;;;;;;6.35;2.25;;;18.80;99.90;;;;;;5073277;28;20623;-56
2023/09/19 09:30:37;;;;;;;8.80;2.05;;;18.70;99.90;;;;;;5073455;28;20166;-56
2023/09/19 09:33:13;;;;;;;4.82;2.03;;;18.70;99.90;;;;;;5073744;28;20239;-56
2023/09/19 09:36:14;;;;;;;8.40;2.63;;;18.80;99.90;;;;;;5073266;28;20206;-56
2023/09/19 09:38:46;;;;;;;8.77;2.40;;;19.00;99.90;;;;;;5071857;28;20176;-57
2023/09/19 09:41:15;;;;;;;4.32;2.22;;;18.90;99.90;;;;;;5073175;28;20177;-57
2023/09/19 09:43:46;;;;;;;10.13;2.78;;;18.90;99.90;;;;;;5073108;28;20173;-58
2023/09/19 09:51:47;;;;;;;10.63;2.00;;;19.00;99.90;;;;;;5073059;28;20200;-59
2023/09/19 09:54:17;;;;;;;9.77;2.70;;;19.00;99.90;;;;;;5072894;28;20205;-58
2023/09/19 09:57:20;;;;;;;7.15;2.70;;;18.90;99.90;;;;;;5072920;28;20181;-56
2023/09/19 09:59:47;;;;;;;7.38;2.45;;;18.90;99.90;;;;;;5068997;28;20227;-57
2023/09/19 10:02:20;;;;;;;8.05;2.25;;;18.80;99.90;;;;;;5072701;28;20176;-59
2023/09/19 10:04:51;;;;;;;10.32;2.50;;;18.90;99.90;;;;;;5072820;28;20208;-59
2023/09/19 10:07:37;;;;;;;6.85;2.45;;;19.20;99.90;;;;;;5072473;28;20636;-57
2023/09/19 10:10:15;;;;;;;9.02;2.33;;;19.30;99.90;;;;;;5073050;28;20174;-60
2023/09/19 10:12:45;;;;;;;7.47;2.05;;;19.50;99.90;;;;;;5072610;28;20165;-57
2023/09/19 10:15:15;;;;;;;8.77;2.03;;;19.50;99.90;;;;;;5072454;28;20205;-60
2023/09/19 10:17:45;;;;;;;10.00;2.22;;;19.50;99.90;;;;;;5072514;28;20190;-57
2023/09/19 10:20:27;;;;;;;6.50;2.60;;;19.40;99.90;;;;;;5072212;28;20689;-57
2023/09/19 10:22:57;;;;;;;6.35;2.08;;;19.40;99.90;;;;;;5072180;28;20161;-60
2023/09/19 10:25:30;;;;;;;8.45;3.28;;;19.50;99.90;;;;;;5072276;28;20582;-59
2023/09/19 10:28:03;;;;;;;9.90;4.95;;;19.30;99.90;;;;;;5072061;28;20174;-60
2023/09/19 10:30:30;;;;;;;8.82;2.80;;;19.40;99.90;;;;;;5072260;28;20174;-59
2023/09/19 10:33:02;;;;;;;10.48;2.78;;;19.50;99.90;;;;;;5071957;28;20166;-59
2023/09/19 10:35:28;;;;;;;5.72;2.05;;;19.60;99.90;;;;;;5071870;28;20560;-59
2023/09/19 10:38:00;;;;;;;6.28;2.60;;;19.80;99.90;;;;;;5071903;28;20241;-59
2023/09/19 10:40:30;;;;;;;6.38;2.53;;;19.70;99.90;;;;;;5072032;28;20174;-59
2023/09/19 10:43:06;;;;;;;8.43;2.47;;;19.60;99.90;;;;;;5071968;28;20174;-60
2023/09/19 10:45:34;;;;;;;8.52;2.90;;;19.60;99.90;;;;;;5071801;28;20224;-59
2023/09/19 10:48:03;;;;;;;4.43;1.98;;;19.50;99.90;;;;;;5071932;28;20173;-59
2023/09/19 10:50:34;;;;;;;6.13;2.08;;;19.60;99.90;;;;;;5071904;28;20172;-59
2023/09/19 10:53:04;;;;;;;6.50;2.50;;;19.70;99.90;;;;;;5071872;28;20200;-60
2023/09/19 10:55:35;;;;;;;11.02;2.53;;;19.70;99.90;;;;;;5071423;28;20256;-59
2023/09/19 10:58:14;;;;;;;7.07;2.33;;;19.50;99.90;;;;;;5071579;28;20257;-59
2023/09/19 11:01:06;;;;;;;7.90;2.35;;;19.60;99.90;;;;;;5070258;28;20222;-59
2023/09/19 11:03:37;;;;;;;9.70;2.33;;;19.50;99.90;;;;;;5072365;28;20190;-58
2023/09/19 11:06:18;;;;;;;8.35;2.80;;;19.70;99.90;;;;;;5071979;28;20162;-60
2023/09/19 11:11:53;;;;;;;9.05;2.03;;;19.80;99.90;;;;;;5071427;28;20551;-59
2023/09/19 11:14:25;;;;;;;6.07;2.22;;;19.70;99.90;;;;;;5071575;28;20615;-60
2023/09/19 11:22:51;;;;;;;11.10;2.70;;;20.00;99.90;;;;;;5071757;28;20172;-60
2023/09/19 11:25:34;;;;;;;6.55;2.78;;;19.70;99.90;;;;;;5071609;28;20193;-60
2023/09/19 11:28:16;;;;;;;7.07;2.47;;;20.00;99.90;;;;;;5071048;28;20625;-60
2023/09/19 11:30:48;;;;;;;12.15;2.38;;;20.10;99.90;;;;;;5071429;28;20166;-56
2023/09/19 11:33:28;;;;;;;7.75;2.55;;;20.30;99.90;;;;;;5071410;28;20177;-56
2023/09/19 11:36:08;;;;;;;6.93;2.13;;;20.30;99.90;;;;;;5071162;28;20284;-58
2023/09/19 11:38:45;;;;;;;7.15;2.47;;;20.30;99.90;;;;;;5071826;28;20249;-57
2023/09/19 11:41:26;;;;;;;9.10;2.20;;;20.40;99.90;;;;;;5071331;28;20173;-60
2023/09/19 11:43:54;;;;;;;8.15;2.55;;;;;;;;;;5071083;28;20204;-56
2023/09/19 11:46:23;;;;;;;6.43;2.10;;;20.30;99.90;;;;;;5070862;28;20213;-60
2023/09/19 11:48:49;;;;;;;9.35;2.15;;;20.10;99.90;;;;;;5071027;28;20162;-56
2023/09/19 11:51:26;;;;;;;11.52;2.78;;;20.30;99.90;;;;;;5071030;28;20162;-60
2023/09/19 11:53:56;;;;;;;6.35;2.42;;;20.30;99.90;;;;;;5070893;28;20701;-60
2023/09/19 11:56:24;;;;;;;5.47;2.00;;;20.50;99.90;;;;;;5071188;28;20288;-60
2023/09/19 11:58:55;;;;;;;7.60;2.33;;;20.20;99.90;;;;;;5071203;28;20170;-60
2023/09/19 12:01:33;;;;;;;7.22;2.08;;;20.10;99.90;;;;;;5070929;28;20158;-60
2023/09/19 12:04:00;;;;;;;10.07;2.28;;;20.30;99.90;;;;;;5071071;28;20170;-60
2023/09/19 12:06:27;;;;;;;11.20;2.55;;;20.20;99.90;;;;;;5070772;28;20174;-59
2023/09/19 12:08:54;;;;;;;6.57;2.40;;;20.10;99.90;;;;;;5070808;28;20205;-59
2023/09/19 12:11:21;;;;;;;9.27;2.40;;;20.30;99.90;;;;;;5074871;28;20311;-60
2023/09/19 12:13:48;;;;;;;6.22;2.72;;;20.40;99.90;;;;;;5074556;28;20206;-59
2023/09/19 12:16:16;;;;;;;6.45;2.00;;;20.50;99.90;;;;;;5074546;28;20173;-60
2023/09/19 12:18:44;;;;;;;6.72;2.38;;;20.50;99.90;;;;;;5073309;28;20169;-61
2023/09/19 12:21:27;;;;;;;5.18;1.60;;;20.50;99.90;;;;;;5074250;28;20170;-60
2023/09/19 12:24:09;;;;;;;6.38;2.10;;;20.50;99.90;;;;;;5074704;28;20174;-60
2023/09/19 12:26:43;;;;;;;6.00;1.88;;;20.60;99.90;;;;;;5073548;28;20170;-59
2023/09/19 12:29:17;;;;;;;4.32;1.98;;;20.60;99.90;;;;;;5074592;28;20194;-60
2023/09/19 12:31:53;;;;;;;7.32;2.10;;;20.60;99.90;;;;;;5074280;28;20181;-60
2023/09/19 12:34:27;;;;;;;7.63;1.98;;;20.80;99.90;;;;;;5074099;28;20592;-60
2023/09/19 12:37:06;;;;;;;1.83;1.42;;;20.70;99.90;;;;;;5074126;28;20307;-60
2023/09/19 12:39:31;;;;;;;6.30;1.83;;;20.90;99.90;;;;;;5074692;28;20166;-60
2023/09/19 12:41:58;;;;;;;5.03;2.17;;;21.10;99.90;;;;;;5074161;28;20176;-59
2023/09/19 12:44:24;;;;;;;7.20;1.80;;;21.10;99.90;;;;;;5074002;28;20166;-60
2023/09/19 12:46:51;;;;;;;8.27;2.22;;;;;;;;;;5073690;28;20630;-59
2023/09/19 12:49:18;;;;;;;2.78;1.55;;;21.00;99.90;;;;;;5074309;28;20174;-60
2023/09/19 12:51:45;;;;;;;7.50;2.35;;;20.90;99.90;;;;;;5074226;28;20173;-61
2023/09/19 12:54:11;;;;;;;4.72;2.13;;;21.40;99.90;;;;;;5073776;28;20231;-58
2023/09/19 12:56:44;;;;;;;6.65;2.00;;;21.20;99.90;;;;;;5073900;28;20174;-56
2023/09/19 12:59:13;;;;;;;5.97;1.33;;;20.90;99.90;;;;;;5073788;28;20174;-58
2023/09/19 13:01:50;;;;;;;6.40;1.98;;;21.20;99.90;;;;;;5074067;28;20174;-55
2023/09/19 13:04:19;;;;;;;7.72;1.92;;;21.00;99.90;;;;;;5073729;28;20645;-59
2023/09/19 13:06:48;;;;;;;19.05;3.05;;;21.10;99.90;;;;;;5073681;28;20208;-59
2023/09/19 13:09:15;;;;;;;7.53;1.95;;;21.10;99.90;;;;;;5073668;28;20248;-58
2023/09/19 13:11:43;;;;;;;3.35;1.95;;;21.00;99.90;;;;;;5073587;28;20165;-59